createdAt,value
2022-10-18T00:02:17.627Z,100.00
2022-10-18T00:04:50.430Z,100.00
2022-10-18T00:07:20.152Z,100.00
2022-10-18T00:09:49.840Z,100.00
2022-10-18T00:12:19.527Z,100.00
2022-10-18T00:14:51.582Z,100.00
2022-10-18T00:17:21.337Z,100.00
2022-10-18T00:19:53.722Z,100.00
2022-10-18T00:22:23.394Z,100.00
2022-10-18T00:24:53.188Z,99.74
2022-10-18T00:27:23.111Z,99.69
2022-10-18T00:29:55.527Z,100.00
2022-10-18T00:32:25.438Z,99.69
2022-10-18T00:34:57.694Z,99.26
2022-10-18T00:37:27.477Z,99.23
2022-10-18T00:39:57.160Z,98.42
2022-10-18T00:42:30.964Z,98.56
2022-10-18T00:45:15.459Z,98.43
2022-10-18T00:47:48.460Z,98.37
2022-10-18T00:50:22.852Z,98.10
2022-10-18T00:52:56.979Z,97.19
2022-10-18T00:55:27.177Z,97.16
2022-10-18T00:57:58.659Z,97.44
2022-10-18T01:00:28.379Z,97.62
2022-10-18T01:02:58.199Z,97.84
2022-10-18T01:05:30.749Z,97.92
2022-10-18T01:08:17.975Z,98.02
2022-10-18T01:10:57.288Z,97.56
2022-10-18T01:13:38.437Z,97.28
2022-10-18T01:16:16.906Z,98.11
2022-10-18T01:18:52.456Z,97.68
2022-10-18T01:21:37.689Z,98.30
2022-10-18T01:24:38.454Z,98.79
2022-10-18T01:27:33.488Z,98.34
2022-10-18T01:30:33.435Z,98.31
2022-10-18T01:33:08.603Z,97.83
2022-10-18T01:35:43.730Z,97.40
2022-10-18T01:38:18.125Z,96.94
2022-10-18T01:40:51.258Z,96.94
2022-10-18T01:43:24.472Z,96.87
2022-10-18T01:45:58.560Z,96.19
2022-10-18T01:48:29.027Z,95.95
2022-10-18T01:50:59.637Z,96.07
2022-10-18T01:53:32.796Z,95.46
2022-10-18T01:56:27.051Z,95.55
2022-10-18T01:59:05.515Z,95.21
2022-10-18T02:01:48.329Z,95.17
2022-10-18T02:04:29.928Z,94.06
2022-10-18T02:07:08.869Z,93.69
2022-10-18T02:09:43.242Z,93.37
2022-10-18T02:12:17.711Z,93.04
2022-10-18T02:14:48.649Z,92.91
2022-10-18T02:17:23.510Z,93.46
2022-10-18T02:19:58.690Z,92.63
2022-10-18T02:22:32.905Z,92.07
2022-10-18T02:25:06.355Z,92.73
2022-10-18T02:27:36.193Z,95.23
2022-10-18T02:30:06.490Z,95.97
2022-10-18T02:32:44.452Z,96.01
2022-10-18T02:35:20.832Z,95.82
2022-10-18T02:37:53.288Z,96.88
2022-10-18T02:40:23.258Z,97.43
2022-10-18T02:42:57.771Z,97.52
2022-10-18T02:45:28.430Z,98.10
2022-10-18T02:48:00.693Z,97.94
2022-10-18T02:50:30.455Z,98.46
2022-10-18T02:53:00.138Z,98.02
2022-10-18T02:55:29.948Z,97.85
2022-10-18T02:57:59.615Z,98.04
2022-10-18T03:00:29.280Z,96.50
2022-10-18T03:03:01.552Z,96.28
2022-10-18T03:05:31.297Z,95.58
2022-10-18T03:08:01.049Z,95.66
2022-10-18T03:10:30.746Z,95.75
2022-10-18T03:13:00.575Z,95.88
2022-10-18T03:15:30.221Z,96.34
2022-10-18T03:18:02.501Z,95.75
2022-10-18T03:20:32.294Z,95.26
2022-10-18T03:23:02.013Z,95.12
2022-10-18T03:25:31.699Z,94.85
2022-10-18T03:28:01.442Z,95.07
2022-10-18T03:30:31.149Z,94.56
2022-10-18T03:33:03.489Z,94.30
2022-10-18T03:35:33.263Z,93.47
2022-10-18T03:38:02.950Z,93.71
2022-10-18T03:40:32.607Z,94.14
2022-10-18T03:43:02.288Z,93.77
2022-10-18T03:45:31.955Z,93.79
2022-10-18T03:48:04.211Z,94.10
2022-10-18T03:50:33.942Z,93.85
2022-10-18T03:53:03.713Z,93.91
2022-10-18T03:55:33.413Z,93.48
2022-10-18T03:58:03.333Z,92.80
2022-10-18T04:00:33.211Z,92.95
2022-10-18T04:03:05.592Z,92.22
2022-10-18T04:05:36.674Z,92.60
2022-10-18T04:08:06.634Z,92.26
2022-10-18T04:10:36.366Z,91.25
2022-10-18T04:13:06.069Z,91.62
2022-10-18T04:15:36.075Z,91.02
2022-10-18T04:18:08.676Z,90.58
2022-10-18T04:20:38.451Z,90.62
2022-10-18T04:23:08.177Z,89.81
2022-10-18T04:25:37.909Z,89.03
2022-10-18T04:28:08.146Z,89.62
2022-10-18T04:30:37.953Z,89.55
2022-10-18T04:33:10.302Z,88.67
2022-10-18T04:35:39.977Z,89.24
2022-10-18T04:38:09.815Z,89.44
2022-10-18T04:40:40.412Z,88.60
2022-10-18T04:43:10.104Z,88.95
2022-10-18T04:45:39.801Z,89.13
2022-10-18T04:48:12.277Z,89.01
2022-10-18T04:50:41.915Z,89.06
2022-10-18T04:53:11.603Z,88.92
2022-10-18T04:55:41.497Z,88.72
2022-10-18T04:58:11.150Z,88.48
2022-10-18T05:00:40.944Z,88.44
2022-10-18T05:03:15.377Z,88.06
2022-10-18T05:06:03.124Z,89.35
2022-10-18T05:08:34.127Z,88.73
2022-10-18T05:11:04.529Z,88.28
2022-10-18T05:13:34.354Z,89.23
2022-10-18T05:16:04.035Z,89.77
2022-10-18T05:18:36.362Z,89.92
2022-10-18T05:21:06.301Z,88.77
2022-10-18T05:23:35.986Z,89.95
2022-10-18T05:26:09.062Z,89.49
2022-10-18T05:28:40.497Z,89.43
2022-10-18T05:31:13.044Z,90.00
2022-10-18T05:33:45.431Z,90.31
2022-10-18T05:36:15.109Z,90.64
2022-10-18T05:38:45.704Z,90.55
2022-10-18T05:41:15.815Z,91.17
2022-10-18T05:43:45.534Z,90.97
2022-10-18T05:46:15.951Z,92.21
2022-10-18T05:48:53.032Z,93.06
2022-10-18T05:51:23.155Z,92.87
2022-10-18T05:53:53.168Z,92.99
2022-10-18T05:56:22.992Z,93.43
2022-10-18T05:58:53.761Z,93.71
2022-10-18T06:01:23.563Z,93.69
2022-10-18T06:03:56.112Z,94.37
2022-10-18T06:06:25.792Z,94.50
2022-10-18T06:08:55.621Z,94.06
2022-10-18T06:11:25.350Z,94.18
2022-10-18T06:13:55.636Z,94.34
2022-10-18T06:16:31.214Z,94.51
2022-10-18T06:19:04.634Z,94.31
2022-10-18T06:21:34.304Z,94.36
2022-10-18T06:24:03.966Z,94.18
2022-10-18T06:26:33.835Z,94.38
2022-10-18T06:29:03.766Z,94.46
2022-10-18T06:31:33.484Z,94.43
2022-10-18T06:34:05.797Z,94.90
2022-10-18T06:36:35.482Z,94.90
2022-10-18T06:39:05.276Z,93.33
2022-10-18T06:41:34.992Z,92.27
2022-10-18T06:44:13.740Z,90.00
2022-10-18T06:46:44.090Z,88.19
2022-10-18T06:49:19.143Z,87.23
2022-10-18T06:51:49.660Z,86.88
2022-10-18T06:54:19.828Z,86.88
2022-10-18T06:56:49.616Z,86.76
2022-10-18T06:59:19.538Z,85.81
2022-10-18T07:01:49.189Z,86.43
2022-10-18T07:04:21.950Z,87.32
2022-10-18T07:06:56.728Z,87.08
2022-10-18T07:09:26.319Z,86.99
2022-10-18T07:11:55.919Z,88.03
2022-10-18T07:14:28.918Z,86.84
2022-10-18T07:17:02.030Z,87.37
2022-10-18T07:19:37.246Z,87.23
2022-10-18T07:22:07.050Z,87.47
2022-10-18T07:24:36.868Z,88.10
2022-10-18T07:27:06.841Z,87.97
2022-10-18T07:29:38.330Z,88.46
2022-10-18T07:32:08.580Z,87.96
2022-10-18T07:34:40.935Z,87.95
2022-10-18T07:37:11.406Z,88.55
2022-10-18T07:39:41.214Z,89.47
2022-10-18T07:42:11.040Z,89.47
2022-10-18T07:44:41.965Z,91.05
2022-10-18T07:47:13.216Z,90.83
2022-10-18T07:53:09.873Z,90.28
2022-10-18T07:55:39.733Z,89.91
2022-10-18T07:58:09.577Z,87.86
2022-10-18T08:00:39.345Z,84.93
2022-10-18T08:03:09.583Z,83.92
2022-10-18T08:05:39.333Z,84.74
2022-10-18T08:08:14.899Z,83.22
2022-10-18T08:10:44.658Z,81.45
2022-10-18T08:13:14.349Z,81.55
2022-10-18T08:15:44.265Z,81.30
2022-10-18T08:18:14.442Z,82.08
2022-10-18T08:20:48.199Z,83.15
2022-10-18T08:23:20.539Z,82.57
2022-10-18T08:25:51.039Z,82.20
2022-10-18T08:28:28.164Z,81.10
2022-10-18T08:30:58.052Z,81.51
2022-10-18T08:33:27.849Z,81.99
2022-10-18T08:35:58.360Z,82.17
2022-10-18T08:38:33.351Z,82.43
2022-10-18T08:41:04.800Z,84.63
2022-10-18T08:43:41.898Z,83.86
2022-10-18T08:46:15.487Z,84.42
2022-10-18T08:48:49.323Z,83.10
2022-10-18T08:51:30.036Z,83.10
2022-10-18T08:54:07.140Z,84.10
2022-10-18T08:56:37.633Z,84.61
2022-10-18T08:59:12.414Z,84.38
2022-10-18T09:01:51.400Z,85.70
2022-10-18T09:07:51.713Z,81.80
2022-10-18T09:10:36.115Z,80.64
2022-10-18T09:13:24.728Z,81.52
2022-10-18T09:15:59.939Z,82.07
2022-10-18T09:18:51.406Z,82.57
2022-10-18T09:21:24.063Z,83.24
2022-10-18T09:24:04.962Z,82.72
2022-10-18T09:26:46.234Z,83.23
2022-10-18T09:29:35.260Z,82.38
2022-10-18T09:32:09.339Z,79.14
2022-10-18T09:34:48.342Z,78.60
2022-10-18T09:37:21.690Z,78.03
2022-10-18T09:39:53.553Z,74.90
2022-10-18T09:42:31.068Z,73.28
2022-10-18T09:45:05.759Z,70.07
2022-10-18T09:47:40.652Z,72.45
2022-10-18T09:50:24.296Z,73.10
2022-10-18T09:52:59.710Z,72.50
2022-10-18T09:55:36.849Z,72.92
2022-10-18T09:58:14.589Z,71.13
2022-10-18T10:00:50.176Z,68.90
2022-10-18T10:03:20.079Z,69.19
2022-10-18T10:05:49.990Z,66.20
2022-10-18T10:08:19.675Z,65.26
2022-10-18T10:10:50.605Z,63.63
2022-10-18T10:13:28.321Z,65.89
2022-10-18T10:16:00.247Z,67.07
2022-10-18T10:18:32.814Z,66.22
2022-10-18T10:21:05.833Z,66.63
2022-10-18T10:23:40.548Z,62.09
2022-10-18T10:26:25.555Z,59.88
2022-10-18T10:28:58.283Z,55.35
2022-10-18T10:31:31.362Z,50.75
2022-10-18T10:34:03.725Z,49.92
2022-10-18T10:36:35.236Z,45.42
2022-10-18T10:39:12.622Z,46.35
2022-10-18T10:41:44.036Z,45.29
2022-10-18T10:44:21.907Z,44.38
2022-10-18T10:46:53.091Z,43.03
2022-10-18T10:49:39.543Z,41.35
2022-10-18T10:52:26.202Z,41.34
2022-10-18T10:55:06.252Z,39.30
2022-10-18T10:57:48.743Z,39.02
2022-10-18T11:00:43.677Z,38.18
2022-10-18T11:03:28.482Z,38.24
2022-10-18T11:06:01.149Z,36.81
2022-10-18T11:08:36.397Z,36.47
2022-10-18T11:11:19.379Z,36.67
2022-10-18T11:14:07.384Z,38.38
2022-10-18T11:16:56.332Z,43.39
2022-10-18T11:19:36.992Z,48.31
2022-10-18T11:22:09.440Z,53.85
2022-10-18T11:24:39.684Z,57.85
2022-10-18T11:27:17.863Z,60.30
2022-10-18T11:29:58.236Z,61.81
2022-10-18T11:32:37.517Z,64.34
2022-10-18T11:35:25.350Z,65.47
2022-10-18T11:38:07.793Z,62.07
2022-10-18T11:40:58.428Z,59.63
2022-10-18T11:44:00.722Z,57.16
2022-10-18T11:46:43.271Z,58.53
2022-10-18T11:49:28.707Z,54.54
2022-10-18T11:52:10.570Z,53.46
2022-10-18T11:55:13.646Z,50.99
2022-10-18T11:57:49.030Z,51.86
2022-10-18T12:00:40.775Z,54.03
2022-10-18T12:03:22.661Z,56.61
2022-10-18T12:05:56.911Z,60.22
2022-10-18T12:08:30.719Z,61.18
2022-10-18T12:11:06.408Z,62.40
2022-10-18T12:13:41.868Z,63.51
2022-10-18T12:16:13.573Z,66.43
2022-10-18T12:18:54.379Z,64.32
2022-10-18T12:21:29.769Z,61.74
2022-10-18T12:24:02.479Z,61.63
2022-10-18T12:26:33.554Z,61.33
2022-10-18T12:29:17.045Z,63.12
2022-10-18T12:31:51.071Z,65.30
2022-10-18T12:34:36.298Z,64.08
2022-10-18T12:37:40.774Z,64.20
2022-10-18T12:40:20.305Z,63.13
2022-10-18T12:42:53.413Z,62.89
2022-10-18T12:45:33.512Z,62.04
2022-10-18T12:48:05.166Z,62.44
2022-10-18T12:50:38.122Z,62.58
2022-10-18T12:53:21.091Z,63.72
2022-10-18T12:55:52.514Z,65.33
2022-10-18T12:58:34.400Z,66.31
2022-10-18T13:01:07.721Z,65.50
2022-10-18T13:04:02.732Z,67.06
2022-10-18T13:07:03.182Z,67.35
2022-10-18T13:09:37.645Z,68.46
2022-10-18T13:12:46.941Z,68.37
2022-10-18T13:15:38.186Z,67.94
2022-10-18T13:18:18.712Z,69.34
2022-10-18T13:20:55.463Z,69.65
2022-10-18T13:23:45.683Z,70.81
2022-10-18T13:26:27.219Z,71.66
2022-10-18T13:29:06.055Z,71.80
2022-10-18T13:31:44.242Z,72.49
2022-10-18T13:34:31.015Z,71.07
2022-10-18T13:37:03.476Z,71.61
2022-10-18T13:39:34.673Z,71.14
2022-10-18T13:42:32.313Z,70.63
2022-10-18T13:45:32.294Z,72.07
2022-10-18T13:48:46.186Z,71.99
2022-10-18T13:51:52.169Z,71.84
2022-10-18T13:54:41.396Z,71.94
2022-10-18T13:57:23.097Z,72.08
2022-10-18T14:00:17.065Z,72.88
2022-10-18T14:03:16.263Z,74.29
2022-10-18T14:05:57.951Z,75.09
2022-10-18T14:08:39.990Z,75.82
2022-10-18T14:11:22.119Z,76.69
2022-10-18T14:13:57.697Z,76.25
2022-10-18T14:16:38.294Z,76.15
2022-10-18T14:19:17.808Z,76.54
2022-10-18T14:21:54.987Z,76.37
2022-10-18T14:24:28.382Z,77.02
2022-10-18T14:27:14.304Z,76.05
2022-10-18T14:29:44.123Z,76.66
2022-10-18T14:32:26.782Z,78.80
2022-10-18T14:35:27.298Z,80.13
2022-10-18T14:37:49.407Z,80.95
2022-10-18T14:40:39.121Z,80.61
2022-10-18T14:43:14.485Z,81.13
2022-10-18T14:45:45.661Z,81.84
2022-10-18T14:48:23.670Z,81.50
2022-10-18T14:51:00.693Z,82.05
2022-10-18T14:53:36.012Z,82.48
2022-10-18T14:56:07.549Z,82.77
2022-10-18T14:58:39.622Z,83.64
2022-10-18T15:01:09.731Z,83.48
2022-10-18T15:03:42.122Z,82.91
2022-10-18T15:06:18.201Z,82.17
2022-10-18T15:08:49.201Z,82.92
2022-10-18T15:11:19.619Z,82.79
2022-10-18T15:13:53.182Z,82.56
2022-10-18T15:16:25.355Z,83.65
2022-10-18T15:19:10.389Z,84.10
2022-10-18T15:21:40.075Z,84.25
2022-10-18T15:24:29.447Z,84.58
2022-10-18T15:27:03.401Z,85.41
2022-10-18T15:29:36.905Z,85.06
2022-10-18T15:32:18.447Z,85.47
2022-10-18T15:34:50.852Z,85.89
2022-10-18T15:37:31.940Z,86.16
2022-10-18T15:40:32.457Z,86.76
2022-10-18T15:43:03.826Z,87.76
2022-10-18T15:45:37.586Z,86.29
2022-10-18T15:48:25.103Z,86.83
2022-10-18T15:51:02.068Z,86.96
2022-10-18T15:53:38.021Z,87.28
2022-10-18T15:56:10.072Z,88.02
2022-10-18T15:58:45.770Z,88.06
2022-10-18T16:01:20.696Z,87.70
2022-10-18T16:03:51.518Z,88.74
2022-10-18T16:06:24.122Z,88.33
2022-10-18T16:08:55.794Z,88.47
2022-10-18T16:11:27.264Z,88.41
2022-10-18T16:13:59.608Z,89.29
2022-10-18T16:16:31.962Z,89.70
2022-10-18T16:19:01.684Z,89.87
2022-10-18T16:21:35.967Z,90.06
2022-10-18T16:24:06.973Z,90.84
2022-10-18T16:26:38.745Z,89.80
2022-10-18T16:29:09.195Z,90.17
2022-10-18T16:31:38.944Z,90.71
2022-10-18T16:34:11.059Z,90.49
2022-10-18T16:36:44.258Z,90.60
2022-10-18T16:39:18.294Z,90.83
2022-10-18T16:41:48.174Z,90.90
2022-10-18T16:44:19.333Z,90.92
2022-10-18T16:46:52.524Z,90.50
2022-10-18T16:49:26.470Z,91.28
2022-10-18T16:51:59.594Z,91.53
2022-10-18T16:54:29.224Z,90.97
2022-10-18T16:56:58.999Z,91.00
2022-10-18T16:59:30.669Z,91.27
2022-10-18T17:02:04.821Z,90.71
2022-10-18T17:04:34.487Z,90.46
2022-10-18T17:07:07.683Z,90.55
2022-10-18T17:09:37.665Z,90.64
2022-10-18T17:12:08.245Z,90.60
2022-10-18T17:14:38.572Z,90.22
2022-10-18T17:17:08.215Z,90.91
2022-10-18T17:19:37.867Z,91.24
2022-10-18T17:22:10.161Z,91.00
2022-10-18T17:24:39.866Z,91.07
2022-10-18T17:27:09.579Z,90.95
2022-10-18T17:29:41.041Z,91.90
2022-10-18T17:32:10.826Z,91.86
2022-10-18T17:37:13.733Z,91.39
2022-10-18T17:39:43.414Z,92.03
2022-10-18T17:42:13.083Z,92.82
2022-10-18T17:44:43.388Z,92.15
2022-10-18T17:47:12.949Z,91.91
2022-10-18T17:49:44.995Z,91.59
2022-10-18T17:52:17.194Z,90.92
2022-10-18T17:54:46.865Z,91.67
2022-10-18T17:57:16.480Z,92.78
2022-10-18T17:59:46.186Z,92.08
2022-10-18T18:02:15.850Z,91.89
2022-10-18T18:04:45.576Z,92.42
2022-10-18T18:07:17.786Z,94.07
2022-10-18T18:09:47.351Z,94.46
2022-10-18T18:12:17.162Z,95.02
2022-10-18T18:14:46.838Z,95.25
2022-10-18T18:17:24.644Z,95.56
2022-10-18T18:20:03.388Z,95.99
2022-10-18T18:22:40.372Z,95.78
2022-10-18T18:25:12.623Z,96.65
2022-10-18T18:27:42.334Z,96.89
2022-10-18T18:30:12.985Z,97.25
2022-10-18T18:32:42.782Z,98.27
2022-10-18T18:35:12.951Z,97.14
2022-10-18T18:37:45.259Z,97.59
2022-10-18T18:40:14.969Z,97.41
2022-10-18T18:42:46.041Z,98.02
2022-10-18T18:45:22.909Z,97.41
2022-10-18T18:47:52.517Z,97.79
2022-10-18T18:50:22.191Z,97.38
2022-10-18T18:52:54.456Z,97.64
2022-10-18T18:55:24.236Z,97.32
2022-10-18T18:57:53.872Z,97.56
2022-10-18T19:00:23.518Z,97.33
2022-10-18T19:02:53.107Z,97.18
2022-10-18T19:07:55.897Z,97.41
2022-10-18T19:10:25.553Z,97.88
2022-10-18T19:12:55.267Z,97.90
2022-10-18T19:15:25.090Z,98.21
2022-10-18T19:17:54.860Z,98.19
2022-10-18T19:20:24.953Z,97.38
2022-10-18T19:22:57.201Z,97.61
2022-10-18T19:25:27.110Z,97.91
2022-10-18T19:27:56.865Z,98.27
2022-10-18T19:30:26.713Z,98.66
2022-10-18T19:33:01.239Z,99.49
2022-10-18T19:35:33.298Z,99.16
2022-10-18T19:38:05.565Z,99.74
2022-10-18T19:40:35.226Z,99.57
2022-10-18T19:43:04.968Z,99.44
2022-10-18T19:45:35.430Z,98.84
2022-10-18T19:48:05.094Z,99.29
2022-10-18T19:50:34.747Z,99.32
2022-10-18T19:53:06.979Z,98.67
2022-10-18T19:55:36.692Z,98.90
2022-10-18T19:58:06.378Z,98.86
2022-10-18T20:00:36.027Z,98.86
2022-10-18T20:03:05.637Z,98.96
2022-10-18T20:05:35.253Z,99.15
2022-10-18T20:08:07.732Z,99.37
2022-10-18T20:10:37.418Z,99.90
2022-10-18T20:13:07.050Z,99.52
2022-10-18T20:15:36.693Z,99.58
2022-10-18T20:18:06.506Z,98.79
2022-10-18T20:20:37.629Z,99.16
2022-10-18T20:23:09.947Z,99.24
2022-10-18T20:25:39.850Z,99.61
2022-10-18T20:28:09.868Z,99.76
2022-10-18T20:30:39.567Z,99.26
2022-10-18T20:33:09.300Z,98.90
2022-10-18T20:35:39.065Z,99.03
2022-10-18T20:38:11.488Z,98.92
2022-10-18T20:40:41.237Z,98.48
2022-10-18T20:43:10.954Z,98.78
2022-10-18T20:45:40.691Z,98.48
2022-10-18T20:48:10.344Z,98.87
2022-10-18T20:50:43.640Z,99.33
2022-10-18T20:53:16.534Z,98.40
2022-10-18T20:55:46.277Z,100.00
2022-10-18T20:58:16.334Z,99.35
2022-10-18T21:00:46.041Z,99.26
2022-10-18T21:03:15.747Z,99.44
2022-10-18T21:05:45.395Z,99.14
2022-10-18T21:08:18.002Z,98.85
2022-10-18T21:10:47.751Z,98.43
2022-10-18T21:13:17.417Z,98.25
2022-10-18T21:15:47.000Z,98.00
2022-10-18T21:18:16.685Z,99.24
2022-10-18T21:20:46.316Z,98.43
2022-10-18T21:23:18.610Z,99.45
2022-10-18T21:25:48.482Z,100.00
2022-10-18T21:28:18.987Z,98.86
2022-10-18T21:30:48.695Z,98.26
2022-10-18T21:33:18.427Z,97.62
2022-10-18T21:35:48.174Z,97.28
2022-10-18T21:38:20.544Z,97.36
2022-10-18T21:40:50.226Z,96.78
2022-10-18T21:43:19.934Z,97.22
2022-10-18T21:45:49.632Z,97.04
2022-10-18T21:48:19.281Z,96.99
2022-10-18T21:50:48.990Z,96.69
2022-10-18T21:53:21.267Z,96.57
2022-10-18T21:55:51.135Z,96.00
2022-10-18T21:58:21.037Z,96.33
2022-10-18T22:00:50.816Z,96.33
2022-10-18T22:03:23.328Z,96.35
2022-10-18T22:06:01.392Z,96.87
2022-10-18T22:08:33.754Z,96.85
2022-10-18T22:11:03.840Z,96.55
2022-10-18T22:13:34.252Z,96.53
2022-10-18T22:16:04.825Z,96.79
2022-10-18T22:18:35.777Z,97.10
2022-10-18T22:21:08.069Z,97.32
2022-10-18T22:23:42.248Z,97.19
2022-10-18T22:26:14.962Z,97.29
2022-10-18T22:28:46.597Z,97.45
2022-10-18T22:31:17.723Z,97.46
2022-10-18T22:33:47.761Z,98.08
2022-10-18T22:36:17.370Z,98.51
2022-10-18T22:38:49.561Z,99.00
2022-10-18T22:41:19.675Z,97.56
2022-10-18T22:43:50.043Z,98.28
2022-10-18T22:46:20.568Z,98.87
2022-10-18T22:48:50.638Z,98.74
2022-10-18T22:51:20.717Z,98.15
2022-10-18T22:53:53.130Z,99.09
2022-10-18T22:56:24.605Z,99.16
2022-10-18T22:58:54.481Z,99.51
2022-10-18T23:01:25.828Z,98.61
2022-10-18T23:03:56.245Z,98.21
2022-10-18T23:06:28.079Z,98.04
2022-10-18T23:09:02.455Z,99.35
2022-10-18T23:11:32.647Z,98.53
2022-10-18T23:14:03.778Z,98.00
2022-10-18T23:16:33.477Z,97.98
2022-10-18T23:19:03.364Z,97.27
2022-10-18T23:21:33.009Z,97.23
2022-10-18T23:24:05.421Z,96.73
2022-10-18T23:26:35.250Z,97.07
2022-10-18T23:29:05.034Z,97.76
2022-10-18T23:31:35.862Z,98.61
2022-10-18T23:34:07.815Z,97.79
2022-10-18T23:36:37.683Z,96.79
2022-10-18T23:39:10.041Z,96.61
2022-10-18T23:41:39.694Z,97.31
2022-10-18T23:44:11.025Z,96.55
2022-10-18T23:46:40.675Z,96.33
2022-10-18T23:49:10.371Z,96.87
2022-10-18T23:51:40.067Z,96.85
2022-10-18T23:54:12.436Z,96.79
2022-10-18T23:56:42.127Z,96.48
2022-10-18T23:59:11.834Z,96.58
